sensor_id;sensor_type;location;lat;lon;timestamp;P1;durP1;ratioP1;P2;durP2;ratioP2
36995;SDS011;22905;50.340;10.776;2022-12-18T00:03:33;42.65;;;17.92;;
36995;SDS011;22905;50.340;10.776;2022-12-18T00:08:34;55.67;;;19.60;;
36995;SDS011;22905;50.340;10.776;2022-12-18T00:13:34;70.70;;;22.60;;
36995;SDS011;22905;50.340;10.776;2022-12-18T00:18:35;63.53;;;24.97;;
36995;SDS011;22905;50.340;10.776;2022-12-18T00:23:36;57.70;;;20.57;;
36995;SDS011;22905;50.340;10.776;2022-12-18T00:28:36;61.33;;;22.70;;
36995;SDS011;22905;50.340;10.776;2022-12-18T00:33:37;59.90;;;21.20;;
36995;SDS011;22905;50.340;10.776;2022-12-18T00:38:38;60.73;;;22.37;;
36995;SDS011;22905;50.340;10.776;2022-12-18T00:43:38;48.27;;;18.70;;
36995;SDS011;22905;50.340;10.776;2022-12-18T00:48:39;52.53;;;18.83;;
36995;SDS011;22905;50.340;10.776;2022-12-18T00:53:39;64.93;;;19.60;;
36995;SDS011;22905;50.340;10.776;2022-12-18T00:58:41;60.00;;;19.23;;
36995;SDS011;22905;50.340;10.776;2022-12-18T01:03:41;41.80;;;18.23;;
36995;SDS011;22905;50.340;10.776;2022-12-18T01:08:41;68.47;;;21.37;;
36995;SDS011;22905;50.340;10.776;2022-12-18T01:13:42;57.53;;;18.67;;
36995;SDS011;22905;50.340;10.776;2022-12-18T01:18:42;43.97;;;15.83;;
36995;SDS011;22905;50.340;10.776;2022-12-18T01:23:43;37.63;;;14.80;;
36995;SDS011;22905;50.340;10.776;2022-12-18T01:28:43;52.95;;;17.23;;
36995;SDS011;22905;50.340;10.776;2022-12-18T01:33:44;51.07;;;15.37;;
36995;SDS011;22905;50.340;10.776;2022-12-18T01:38:44;37.90;;;12.83;;
36995;SDS011;22905;50.340;10.776;2022-12-18T01:43:47;47.57;;;14.40;;
36995;SDS011;22905;50.340;10.776;2022-12-18T01:48:52;33.60;;;13.48;;
36995;SDS011;22905;50.340;10.776;2022-12-18T01:53:55;45.58;;;16.42;;
36995;SDS011;22905;50.340;10.776;2022-12-18T02:09:24;40.85;;;14.55;;
36995;SDS011;22905;50.340;10.776;2022-12-18T02:14:38;37.78;;;14.95;;
36995;SDS011;22905;50.340;10.776;2022-12-18T02:30:23;35.80;;;12.77;;
36995;SDS011;22905;50.340;10.776;2022-12-18T02:35:24;42.83;;;14.73;;
36995;SDS011;22905;50.340;10.776;2022-12-18T02:40:27;40.95;;;14.00;;
36995;SDS011;22905;50.340;10.776;2022-12-18T02:45:28;40.23;;;15.17;;
36995;SDS011;22905;50.340;10.776;2022-12-18T03:00:53;33.38;;;14.90;;
36995;SDS011;22905;50.340;10.776;2022-12-18T03:06:03;49.67;;;15.95;;
36995;SDS011;22905;50.340;10.776;2022-12-18T03:11:08;45.42;;;15.82;;
36995;SDS011;22905;50.340;10.776;2022-12-18T03:16:11;50.50;;;16.90;;
36995;SDS011;22905;50.340;10.776;2022-12-18T03:21:14;54.50;;;15.88;;
36995;SDS011;22905;50.340;10.776;2022-12-18T03:26:16;43.88;;;13.75;;
36995;SDS011;22905;50.340;10.776;2022-12-18T03:31:20;43.83;;;14.55;;
36995;SDS011;22905;50.340;10.776;2022-12-18T03:36:22;38.10;;;15.65;;
36995;SDS011;22905;50.340;10.776;2022-12-18T03:41:32;50.50;;;17.73;;
36995;SDS011;22905;50.340;10.776;2022-12-18T03:46:43;41.67;;;15.32;;
36995;SDS011;22905;50.340;10.776;2022-12-18T03:52:08;38.50;;;15.57;;
36995;SDS011;22905;50.340;10.776;2022-12-18T03:57:15;40.17;;;14.07;;
36995;SDS011;22905;50.340;10.776;2022-12-18T04:02:18;43.53;;;16.05;;
36995;SDS011;22905;50.340;10.776;2022-12-18T04:07:19;40.27;;;15.73;;
36995;SDS011;22905;50.340;10.776;2022-12-18T04:12:20;30.08;;;13.75;;
36995;SDS011;22905;50.340;10.776;2022-12-18T04:17:21;40.10;;;14.97;;
36995;SDS011;22905;50.340;10.776;2022-12-18T04:22:22;36.65;;;13.48;;
36995;SDS011;22905;50.340;10.776;2022-12-18T04:27:22;31.13;;;14.00;;
36995;SDS011;22905;50.340;10.776;2022-12-18T04:32:23;36.93;;;13.50;;
36995;SDS011;22905;50.340;10.776;2022-12-18T04:37:23;33.50;;;12.97;;
36995;SDS011;22905;50.340;10.776;2022-12-18T04:42:23;34.27;;;13.43;;
36995;SDS011;22905;50.340;10.776;2022-12-18T04:47:24;36.87;;;11.40;;
36995;SDS011;22905;50.340;10.776;2022-12-18T04:52:24;28.40;;;11.23;;
36995;SDS011;22905;50.340;10.776;2022-12-18T04:57:24;24.37;;;10.90;;
36995;SDS011;22905;50.340;10.776;2022-12-18T05:02:25;34.73;;;13.13;;
36995;SDS011;22905;50.340;10.776;2022-12-18T05:07:25;28.57;;;13.37;;
36995;SDS011;22905;50.340;10.776;2022-12-18T05:12:25;42.53;;;14.43;;
36995;SDS011;22905;50.340;10.776;2022-12-18T05:17:26;45.47;;;14.00;;
36995;SDS011;22905;50.340;10.776;2022-12-18T05:22:26;36.42;;;13.98;;
36995;SDS011;22905;50.340;10.776;2022-12-18T05:27:27;38.75;;;12.90;;
36995;SDS011;22905;50.340;10.776;2022-12-18T05:32:27;43.58;;;13.23;;
36995;SDS011;22905;50.340;10.776;2022-12-18T05:37:28;32.43;;;12.27;;
36995;SDS011;22905;50.340;10.776;2022-12-18T05:42:28;36.20;;;13.10;;
36995;SDS011;22905;50.340;10.776;2022-12-18T05:47:28;29.20;;;12.48;;
36995;SDS011;22905;50.340;10.776;2022-12-18T05:52:29;33.03;;;11.27;;
36995;SDS011;22905;50.340;10.776;2022-12-18T05:57:30;46.08;;;14.20;;
36995;SDS011;22905;50.340;10.776;2022-12-18T06:02:30;33.70;;;13.57;;
36995;SDS011;22905;50.340;10.776;2022-12-18T06:07:30;38.05;;;15.88;;
36995;SDS011;22905;50.340;10.776;2022-12-18T06:12:31;76.35;;;25.75;;
36995;SDS011;22905;50.340;10.776;2022-12-18T06:17:33;60.38;;;19.42;;
36995;SDS011;22905;50.340;10.776;2022-12-18T06:22:33;41.87;;;16.80;;
36995;SDS011;22905;50.340;10.776;2022-12-18T06:27:34;52.60;;;19.67;;
36995;SDS011;22905;50.340;10.776;2022-12-18T06:32:35;41.88;;;17.58;;
36995;SDS011;22905;50.340;10.776;2022-12-18T06:37:35;91.57;;;28.55;;
36995;SDS011;22905;50.340;10.776;2022-12-18T06:42:35;84.20;;;27.53;;
36995;SDS011;22905;50.340;10.776;2022-12-18T06:47:36;63.53;;;22.27;;
36995;SDS011;22905;50.340;10.776;2022-12-18T06:52:36;82.22;;;27.13;;
36995;SDS011;22905;50.340;10.776;2022-12-18T06:57:37;46.63;;;19.57;;
36995;SDS011;22905;50.340;10.776;2022-12-18T07:02:37;37.43;;;15.00;;
36995;SDS011;22905;50.340;10.776;2022-12-18T07:07:37;48.95;;;15.98;;
36995;SDS011;22905;50.340;10.776;2022-12-18T07:12:38;56.20;;;22.92;;
36995;SDS011;22905;50.340;10.776;2022-12-18T07:17:38;60.30;;;18.98;;
36995;SDS011;22905;50.340;10.776;2022-12-18T07:22:38;58.95;;;17.92;;
36995;SDS011;22905;50.340;10.776;2022-12-18T07:27:39;40.65;;;18.88;;
36995;SDS011;22905;50.340;10.776;2022-12-18T07:32:39;51.10;;;18.48;;
36995;SDS011;22905;50.340;10.776;2022-12-18T07:37:39;45.73;;;19.13;;
36995;SDS011;22905;50.340;10.776;2022-12-18T07:42:40;57.00;;;19.63;;
36995;SDS011;22905;50.340;10.776;2022-12-18T07:47:40;47.97;;;20.90;;
36995;SDS011;22905;50.340;10.776;2022-12-18T07:52:41;53.77;;;20.27;;
36995;SDS011;22905;50.340;10.776;2022-12-18T07:57:41;39.10;;;15.02;;
36995;SDS011;22905;50.340;10.776;2022-12-18T08:02:41;76.87;;;26.53;;
36995;SDS011;22905;50.340;10.776;2022-12-18T08:07:42;57.63;;;20.02;;
36995;SDS011;22905;50.340;10.776;2022-12-18T08:12:43;54.10;;;20.20;;
36995;SDS011;22905;50.340;10.776;2022-12-18T08:17:43;63.08;;;22.88;;
36995;SDS011;22905;50.340;10.776;2022-12-18T08:22:44;63.90;;;22.65;;
36995;SDS011;22905;50.340;10.776;2022-12-18T08:27:44;56.30;;;20.40;;
36995;SDS011;22905;50.340;10.776;2022-12-18T08:32:45;29.95;;;14.75;;
36995;SDS011;22905;50.340;10.776;2022-12-18T08:37:45;31.05;;;13.82;;
36995;SDS011;22905;50.340;10.776;2022-12-18T08:42:45;34.38;;;13.60;;
36995;SDS011;22905;50.340;10.776;2022-12-18T08:48:04;42.67;;;17.75;;
36995;SDS011;22905;50.340;10.776;2022-12-18T08:53:05;33.65;;;14.98;;
36995;SDS011;22905;50.340;10.776;2022-12-18T08:58:05;32.22;;;15.00;;
36995;SDS011;22905;50.340;10.776;2022-12-18T09:03:10;44.13;;;17.00;;
36995;SDS011;22905;50.340;10.776;2022-12-18T09:08:12;38.45;;;14.75;;
36995;SDS011;22905;50.340;10.776;2022-12-18T09:13:12;44.90;;;15.53;;
36995;SDS011;22905;50.340;10.776;2022-12-18T09:18:13;37.97;;;13.15;;
36995;SDS011;22905;50.340;10.776;2022-12-18T09:23:14;35.55;;;15.68;;
36995;SDS011;22905;50.340;10.776;2022-12-18T09:28:15;33.72;;;16.55;;
36995;SDS011;22905;50.340;10.776;2022-12-18T09:33:17;40.13;;;15.43;;
36995;SDS011;22905;50.340;10.776;2022-12-18T09:38:18;49.33;;;17.17;;
36995;SDS011;22905;50.340;10.776;2022-12-18T09:43:19;52.97;;;20.75;;
36995;SDS011;22905;50.340;10.776;2022-12-18T09:48:26;44.90;;;15.23;;
36995;SDS011;22905;50.340;10.776;2022-12-18T09:53:30;35.25;;;14.35;;
36995;SDS011;22905;50.340;10.776;2022-12-18T09:59:17;31.08;;;12.60;;
36995;SDS011;22905;50.340;10.776;2022-12-18T10:03:59;40.65;;;13.93;;
36995;SDS011;22905;50.340;10.776;2022-12-18T10:19:36;32.03;;;12.52;;
36995;SDS011;22905;50.340;10.776;2022-12-18T10:30:20;35.63;;;14.63;;
36995;SDS011;22905;50.340;10.776;2022-12-18T10:35:23;32.67;;;14.55;;
36995;SDS011;22905;50.340;10.776;2022-12-18T10:40:24;30.17;;;11.55;;
36995;SDS011;22905;50.340;10.776;2022-12-18T10:45:25;27.77;;;11.98;;
36995;SDS011;22905;50.340;10.776;2022-12-18T10:55:37;34.50;;;13.02;;
36995;SDS011;22905;50.340;10.776;2022-12-18T11:00:38;42.75;;;17.08;;
36995;SDS011;22905;50.340;10.776;2022-12-18T11:05:38;41.03;;;13.97;;
36995;SDS011;22905;50.340;10.776;2022-12-18T11:10:38;37.25;;;13.32;;
36995;SDS011;22905;50.340;10.776;2022-12-18T11:15:40;31.77;;;15.05;;
36995;SDS011;22905;50.340;10.776;2022-12-18T11:20:41;27.75;;;13.77;;
36995;SDS011;22905;50.340;10.776;2022-12-18T11:25:41;35.95;;;14.35;;
36995;SDS011;22905;50.340;10.776;2022-12-18T11:36:32;29.02;;;12.77;;
36995;SDS011;22905;50.340;10.776;2022-12-18T11:41:52;25.52;;;11.82;;
36995;SDS011;22905;50.340;10.776;2022-12-18T11:47:28;24.58;;;10.70;;
36995;SDS011;22905;50.340;10.776;2022-12-18T11:52:39;26.63;;;13.48;;
36995;SDS011;22905;50.340;10.776;2022-12-18T11:57:52;33.63;;;15.32;;
36995;SDS011;22905;50.340;10.776;2022-12-18T12:19:13;26.58;;;13.88;;
36995;SDS011;22905;50.340;10.776;2022-12-18T12:29:26;38.00;;;16.98;;
36995;SDS011;22905;50.340;10.776;2022-12-18T12:34:46;35.33;;;12.75;;
36995;SDS011;22905;50.340;10.776;2022-12-18T12:39:49;32.25;;;13.48;;
36995;SDS011;22905;50.340;10.776;2022-12-18T12:44:51;31.17;;;13.30;;
36995;SDS011;22905;50.340;10.776;2022-12-18T12:49:54;33.30;;;13.98;;
36995;SDS011;22905;50.340;10.776;2022-12-18T12:54:55;35.25;;;16.45;;
36995;SDS011;22905;50.340;10.776;2022-12-18T13:00:09;30.58;;;14.32;;
36995;SDS011;22905;50.340;10.776;2022-12-18T13:15:37;44.20;;;14.60;;
36995;SDS011;22905;50.340;10.776;2022-12-18T13:20:51;32.70;;;12.15;;
36995;SDS011;22905;50.340;10.776;2022-12-18T13:31:08;20.00;;;9.32;;
36995;SDS011;22905;50.340;10.776;2022-12-18T13:36:10;20.87;;;10.90;;
36995;SDS011;22905;50.340;10.776;2022-12-18T13:46:24;33.63;;;14.05;;
36995;SDS011;22905;50.340;10.776;2022-12-18T13:51:27;20.83;;;12.45;;
36995;SDS011;22905;50.340;10.776;2022-12-18T13:56:30;25.38;;;10.55;;
36995;SDS011;22905;50.340;10.776;2022-12-18T14:01:32;34.60;;;14.48;;
36995;SDS011;22905;50.340;10.776;2022-12-18T14:06:32;26.60;;;12.13;;
36995;SDS011;22905;50.340;10.776;2022-12-18T14:11:34;28.00;;;13.53;;
36995;SDS011;22905;50.340;10.776;2022-12-18T14:16:34;27.70;;;14.18;;
36995;SDS011;22905;50.340;10.776;2022-12-18T14:21:35;31.30;;;15.43;;
36995;SDS011;22905;50.340;10.776;2022-12-18T14:26:37;35.23;;;13.33;;
36995;SDS011;22905;50.340;10.776;2022-12-18T14:31:37;23.33;;;11.83;;
36995;SDS011;22905;50.340;10.776;2022-12-18T14:36:37;26.83;;;13.77;;
36995;SDS011;22905;50.340;10.776;2022-12-18T14:41:39;32.00;;;12.38;;
36995;SDS011;22905;50.340;10.776;2022-12-18T14:46:41;27.88;;;12.57;;
36995;SDS011;22905;50.340;10.776;2022-12-18T14:51:47;27.75;;;12.55;;
36995;SDS011;22905;50.340;10.776;2022-12-18T14:56:49;26.33;;;14.52;;
36995;SDS011;22905;50.340;10.776;2022-12-18T15:01:56;26.05;;;11.45;;
36995;SDS011;22905;50.340;10.776;2022-12-18T15:07:04;21.85;;;8.82;;
36995;SDS011;22905;50.340;10.776;2022-12-18T15:12:15;30.77;;;10.75;;
36995;SDS011;22905;50.340;10.776;2022-12-18T15:17:28;26.50;;;10.98;;
36995;SDS011;22905;50.340;10.776;2022-12-18T15:22:35;28.15;;;11.43;;
36995;SDS011;22905;50.340;10.776;2022-12-18T15:27:36;27.20;;;12.00;;
36995;SDS011;22905;50.340;10.776;2022-12-18T15:32:37;25.10;;;12.82;;
36995;SDS011;22905;50.340;10.776;2022-12-18T15:37:38;27.08;;;11.90;;
36995;SDS011;22905;50.340;10.776;2022-12-18T15:42:39;31.70;;;13.05;;
36995;SDS011;22905;50.340;10.776;2022-12-18T15:47:58;34.50;;;15.98;;
36995;SDS011;22905;50.340;10.776;2022-12-18T15:52:59;56.60;;;21.30;;
36995;SDS011;22905;50.340;10.776;2022-12-18T15:57:59;23.07;;;11.23;;
36995;SDS011;22905;50.340;10.776;2022-12-18T16:02:59;30.85;;;11.75;;
36995;SDS011;22905;50.340;10.776;2022-12-18T16:08:00;26.08;;;11.15;;
36995;SDS011;22905;50.340;10.776;2022-12-18T16:13:00;28.30;;;10.02;;
36995;SDS011;22905;50.340;10.776;2022-12-18T16:18:00;20.02;;;10.73;;
36995;SDS011;22905;50.340;10.776;2022-12-18T16:23:01;20.98;;;10.10;;
36995;SDS011;22905;50.340;10.776;2022-12-18T16:28:01;25.07;;;10.63;;
36995;SDS011;22905;50.340;10.776;2022-12-18T16:33:01;21.37;;;9.63;;
36995;SDS011;22905;50.340;10.776;2022-12-18T16:38:01;20.35;;;9.85;;
36995;SDS011;22905;50.340;10.776;2022-12-18T16:43:02;27.33;;;11.77;;
36995;SDS011;22905;50.340;10.776;2022-12-18T16:48:02;23.13;;;10.80;;
36995;SDS011;22905;50.340;10.776;2022-12-18T16:53:03;20.40;;;9.45;;
36995;SDS011;22905;50.340;10.776;2022-12-18T16:58:03;20.30;;;10.47;;
36995;SDS011;22905;50.340;10.776;2022-12-18T17:03:03;23.20;;;9.77;;
36995;SDS011;22905;50.340;10.776;2022-12-18T17:08:03;28.33;;;11.82;;
36995;SDS011;22905;50.340;10.776;2022-12-18T17:13:04;68.63;;;25.65;;
36995;SDS011;22905;50.340;10.776;2022-12-18T17:18:04;47.10;;;22.52;;
36995;SDS011;22905;50.340;10.776;2022-12-18T17:23:05;47.23;;;20.67;;
36995;SDS011;22905;50.340;10.776;2022-12-18T17:28:05;29.75;;;14.18;;
36995;SDS011;22905;50.340;10.776;2022-12-18T17:33:05;34.05;;;13.40;;
36995;SDS011;22905;50.340;10.776;2022-12-18T17:38:06;27.23;;;13.38;;
36995;SDS011;22905;50.340;10.776;2022-12-18T17:43:07;55.70;;;19.73;;
36995;SDS011;22905;50.340;10.776;2022-12-18T17:48:08;44.85;;;21.20;;
36995;SDS011;22905;50.340;10.776;2022-12-18T17:53:08;30.02;;;15.63;;
36995;SDS011;22905;50.340;10.776;2022-12-18T17:58:09;28.42;;;13.57;;
36995;SDS011;22905;50.340;10.776;2022-12-18T18:03:09;33.65;;;14.70;;
36995;SDS011;22905;50.340;10.776;2022-12-18T18:08:09;32.85;;;14.43;;
36995;SDS011;22905;50.340;10.776;2022-12-18T18:13:16;28.90;;;14.73;;
36995;SDS011;22905;50.340;10.776;2022-12-18T18:18:37;32.10;;;14.65;;
36995;SDS011;22905;50.340;10.776;2022-12-18T18:23:38;36.85;;;16.35;;
36995;SDS011;22905;50.340;10.776;2022-12-18T18:28:38;34.80;;;14.67;;
36995;SDS011;22905;50.340;10.776;2022-12-18T18:33:40;43.72;;;20.35;;
36995;SDS011;22905;50.340;10.776;2022-12-18T18:38:40;44.13;;;15.90;;
36995;SDS011;22905;50.340;10.776;2022-12-18T18:43:41;38.73;;;15.07;;
36995;SDS011;22905;50.340;10.776;2022-12-18T18:48:41;45.63;;;20.77;;
36995;SDS011;22905;50.340;10.776;2022-12-18T18:53:42;50.17;;;22.83;;
36995;SDS011;22905;50.340;10.776;2022-12-18T18:58:44;50.80;;;20.90;;
36995;SDS011;22905;50.340;10.776;2022-12-18T19:03:44;46.30;;;19.30;;
36995;SDS011;22905;50.340;10.776;2022-12-18T19:08:45;35.30;;;15.73;;
36995;SDS011;22905;50.340;10.776;2022-12-18T19:13:46;34.20;;;15.23;;
36995;SDS011;22905;50.340;10.776;2022-12-18T19:18:46;29.00;;;13.55;;
36995;SDS011;22905;50.340;10.776;2022-12-18T19:23:47;32.83;;;13.73;;
36995;SDS011;22905;50.340;10.776;2022-12-18T19:28:47;51.78;;;20.65;;
36995;SDS011;22905;50.340;10.776;2022-12-18T19:33:47;32.58;;;17.77;;
36995;SDS011;22905;50.340;10.776;2022-12-18T19:38:48;35.10;;;15.13;;
36995;SDS011;22905;50.340;10.776;2022-12-18T19:43:49;32.20;;;14.23;;
36995;SDS011;22905;50.340;10.776;2022-12-18T19:48:50;30.58;;;14.23;;
36995;SDS011;22905;50.340;10.776;2022-12-18T19:53:51;31.40;;;16.80;;
36995;SDS011;22905;50.340;10.776;2022-12-18T19:58:52;29.88;;;15.02;;
36995;SDS011;22905;50.340;10.776;2022-12-18T20:03:53;32.20;;;13.18;;
36995;SDS011;22905;50.340;10.776;2022-12-18T20:08:54;29.65;;;13.82;;
36995;SDS011;22905;50.340;10.776;2022-12-18T20:13:56;36.08;;;13.35;;
36995;SDS011;22905;50.340;10.776;2022-12-18T20:19:01;26.45;;;12.65;;
36995;SDS011;22905;50.340;10.776;2022-12-18T20:24:01;31.50;;;12.63;;
36995;SDS011;22905;50.340;10.776;2022-12-18T20:29:01;34.05;;;13.48;;
36995;SDS011;22905;50.340;10.776;2022-12-18T20:34:02;27.48;;;13.52;;
36995;SDS011;22905;50.340;10.776;2022-12-18T20:39:03;34.00;;;14.40;;
36995;SDS011;22905;50.340;10.776;2022-12-18T20:44:07;28.70;;;16.00;;
36995;SDS011;22905;50.340;10.776;2022-12-18T20:49:12;52.10;;;20.42;;
36995;SDS011;22905;50.340;10.776;2022-12-18T20:54:12;37.55;;;16.80;;
36995;SDS011;22905;50.340;10.776;2022-12-18T20:59:13;35.05;;;13.52;;
36995;SDS011;22905;50.340;10.776;2022-12-18T21:04:13;33.28;;;14.73;;
36995;SDS011;22905;50.340;10.776;2022-12-18T21:09:13;32.78;;;12.73;;
36995;SDS011;22905;50.340;10.776;2022-12-18T21:14:15;27.48;;;10.38;;
36995;SDS011;22905;50.340;10.776;2022-12-18T21:19:18;32.38;;;10.43;;
36995;SDS011;22905;50.340;10.776;2022-12-18T21:24:21;26.40;;;11.27;;
36995;SDS011;22905;50.340;10.776;2022-12-18T21:29:23;36.28;;;12.75;;
36995;SDS011;22905;50.340;10.776;2022-12-18T21:34:25;30.40;;;12.95;;
36995;SDS011;22905;50.340;10.776;2022-12-18T21:39:27;25.55;;;11.63;;
36995;SDS011;22905;50.340;10.776;2022-12-18T21:44:29;30.00;;;11.40;;
36995;SDS011;22905;50.340;10.776;2022-12-18T21:49:29;36.58;;;13.38;;
36995;SDS011;22905;50.340;10.776;2022-12-18T21:54:30;50.88;;;17.55;;
36995;SDS011;22905;50.340;10.776;2022-12-18T22:09:37;23.20;;;10.95;;
36995;SDS011;22905;50.340;10.776;2022-12-18T22:14:38;31.90;;;12.05;;
36995;SDS011;22905;50.340;10.776;2022-12-18T22:19:38;27.27;;;11.85;;
36995;SDS011;22905;50.340;10.776;2022-12-18T22:24:39;35.38;;;15.40;;
36995;SDS011;22905;50.340;10.776;2022-12-18T22:29:39;34.35;;;16.02;;
36995;SDS011;22905;50.340;10.776;2022-12-18T22:34:58;30.83;;;13.20;;
36995;SDS011;22905;50.340;10.776;2022-12-18T22:39:59;31.27;;;13.88;;
36995;SDS011;22905;50.340;10.776;2022-12-18T22:44:59;32.50;;;14.50;;
36995;SDS011;22905;50.340;10.776;2022-12-18T22:49:59;33.83;;;14.10;;
36995;SDS011;22905;50.340;10.776;2022-12-18T22:55:00;36.92;;;14.50;;
36995;SDS011;22905;50.340;10.776;2022-12-18T23:00:00;34.10;;;12.80;;
36995;SDS011;22905;50.340;10.776;2022-12-18T23:05:00;27.43;;;12.93;;
36995;SDS011;22905;50.340;10.776;2022-12-18T23:10:01;27.58;;;11.63;;
36995;SDS011;22905;50.340;10.776;2022-12-18T23:15:01;32.22;;;12.88;;
36995;SDS011;22905;50.340;10.776;2022-12-18T23:20:02;35.00;;;13.63;;
36995;SDS011;22905;50.340;10.776;2022-12-18T23:25:03;33.53;;;15.15;;
36995;SDS011;22905;50.340;10.776;2022-12-18T23:30:03;30.33;;;12.50;;
36995;SDS011;22905;50.340;10.776;2022-12-18T23:35:04;29.02;;;12.95;;
36995;SDS011;22905;50.340;10.776;2022-12-18T23:40:05;42.83;;;15.60;;
36995;SDS011;22905;50.340;10.776;2022-12-18T23:45:06;37.05;;;13.63;;
36995;SDS011;22905;50.340;10.776;2022-12-18T23:50:07;28.45;;;10.60;;
36995;SDS011;22905;50.340;10.776;2022-12-18T23:55:08;28.97;;;11.20;;
